createdAt,value
2023-04-08T00:04:59.078Z,81.31
2023-04-08T00:10:02.044Z,81.45
2023-04-08T00:15:05.315Z,81.43
2023-04-08T00:20:08.633Z,81.44
2023-04-08T00:25:11.332Z,81.52
2023-04-08T00:30:15.438Z,81.66
2023-04-08T00:35:18.187Z,81.94
2023-04-08T00:40:21.138Z,82.14
2023-04-08T00:45:23.824Z,82.48
2023-04-08T00:50:26.489Z,82.16
2023-04-08T00:55:29.208Z,82.18
2023-04-08T01:00:32.902Z,82.17
2023-04-08T01:05:47.364Z,82.80
2023-04-08T01:10:54.162Z,82.91
2023-04-08T01:15:57.277Z,83.15
2023-04-08T01:21:00.524Z,83.04
2023-04-08T01:26:03.271Z,82.64
2023-04-08T01:31:07.276Z,82.76
2023-04-08T01:36:11.107Z,83.07
2023-04-08T01:41:13.924Z,82.90
2023-04-08T01:46:17.157Z,82.94
2023-04-08T01:51:21.250Z,83.03
2023-04-08T01:56:28.440Z,83.39
2023-04-08T02:01:33.142Z,83.51
2023-04-08T02:06:38.022Z,83.74
2023-04-08T02:11:40.726Z,83.99
2023-04-08T02:16:56.499Z,84.09
2023-04-08T02:22:25.647Z,83.89
2023-04-08T02:27:29.677Z,83.83
2023-04-08T02:32:33.340Z,83.64
2023-04-08T02:37:36.198Z,83.34
2023-04-08T02:42:38.950Z,83.67
2023-04-08T02:47:41.605Z,83.71
2023-04-08T02:52:45.005Z,83.71
2023-04-08T02:57:48.358Z,83.50
2023-04-08T03:02:51.241Z,83.52
2023-04-08T03:07:54.158Z,83.55
2023-04-08T03:12:56.800Z,83.69
2023-04-08T03:18:00.299Z,83.71
2023-04-08T03:23:03.113Z,83.60
2023-04-08T03:28:05.819Z,83.56
2023-04-08T03:33:08.919Z,83.61
2023-04-08T03:38:11.750Z,83.64
2023-04-08T03:43:14.863Z,83.94
2023-04-08T03:48:17.509Z,83.94
2023-04-08T03:53:20.349Z,83.82
2023-04-08T03:58:23.152Z,83.73
2023-04-08T04:03:25.945Z,83.47
2023-04-08T04:08:28.686Z,83.38
2023-04-08T04:13:31.309Z,83.35
2023-04-08T04:18:34.056Z,83.59
2023-04-08T04:23:36.853Z,83.36
2023-04-08T04:28:39.535Z,83.07
2023-04-08T04:33:42.195Z,83.03
2023-04-08T04:38:45.398Z,82.95
2023-04-08T04:43:48.065Z,83.19
2023-04-08T04:48:51.653Z,83.33
2023-04-08T04:53:54.402Z,83.48
2023-04-08T04:58:57.104Z,83.98
2023-04-08T05:03:59.791Z,83.93
2023-04-08T05:09:02.785Z,83.79
2023-04-08T05:14:05.664Z,83.66
2023-04-08T05:19:08.368Z,83.79
2023-04-08T05:24:11.005Z,83.85
2023-04-08T05:29:13.655Z,84.15
2023-04-08T05:34:19.448Z,84.34
2023-04-08T05:39:22.149Z,84.31
2023-04-08T05:44:24.965Z,83.59
2023-04-08T05:49:27.583Z,83.45
2023-04-08T05:54:30.409Z,83.34
2023-04-08T05:59:33.077Z,83.10
2023-04-08T06:04:35.817Z,83.11
2023-04-08T06:09:38.494Z,82.74
2023-04-08T06:14:41.139Z,82.41
2023-04-08T06:19:43.832Z,81.73
2023-04-08T06:24:47.655Z,81.54
2023-04-08T06:29:50.918Z,80.75
2023-04-08T06:34:53.568Z,80.05
2023-04-08T06:39:56.500Z,79.65
2023-04-08T06:44:59.362Z,78.97
2023-04-08T06:50:02.227Z,78.39
2023-04-08T06:55:05.267Z,77.55
2023-04-08T07:00:08.874Z,76.51
2023-04-08T07:05:11.538Z,75.86
2023-04-08T07:10:14.253Z,75.92
2023-04-08T07:15:16.962Z,75.01
2023-04-08T07:20:19.611Z,73.03
2023-04-08T07:25:22.309Z,72.63
2023-04-08T07:30:25.051Z,71.86
2023-04-08T07:35:27.944Z,72.02
2023-04-08T07:40:31.043Z,70.81
2023-04-08T07:45:33.775Z,69.63
2023-04-08T07:51:08.815Z,68.92
2023-04-08T07:56:00.606Z,68.47
2023-04-08T08:01:03.661Z,68.28
2023-04-08T08:06:06.418Z,67.87
2023-04-08T08:11:09.193Z,68.32
2023-04-08T08:16:12.345Z,69.08
2023-04-08T08:21:16.003Z,68.30
2023-04-08T08:26:18.747Z,67.89
2023-04-08T08:31:21.500Z,67.75
2023-04-08T08:36:24.435Z,68.26
2023-04-08T08:41:27.081Z,67.65
2023-04-08T08:46:29.907Z,67.16
2023-04-08T08:51:33.133Z,67.24
2023-04-08T08:56:35.873Z,66.09
2023-04-08T09:01:41.466Z,64.95
2023-04-08T09:07:04.622Z,63.97
2023-04-08T09:12:07.291Z,64.09
2023-04-08T09:17:10.673Z,63.35
2023-04-08T09:22:13.379Z,63.02
2023-04-08T09:27:16.023Z,60.95
2023-04-08T09:32:18.707Z,60.51
2023-04-08T09:37:21.411Z,61.00
2023-04-08T09:42:24.120Z,61.07
2023-04-08T09:47:28.909Z,60.72
2023-04-08T09:52:43.866Z,59.92
2023-04-08T09:57:58.179Z,58.92
2023-04-08T10:03:26.449Z,58.27
2023-04-08T10:08:31.595Z,57.32
2023-04-08T10:13:34.811Z,57.01
2023-04-08T10:18:38.305Z,55.99
2023-04-08T10:24:01.524Z,55.69
2023-04-08T10:29:19.445Z,53.39
2023-04-08T10:34:27.603Z,51.90
2023-04-08T10:39:30.857Z,50.49
2023-04-08T10:44:33.520Z,50.37
2023-04-08T10:49:37.088Z,49.77
2023-04-08T10:54:46.838Z,49.80
2023-04-08T10:59:49.495Z,50.29
2023-04-08T11:04:54.364Z,48.38
2023-04-08T11:09:57.149Z,47.77
2023-04-08T11:14:59.901Z,47.88
2023-04-08T11:20:06.268Z,46.49
2023-04-08T11:25:10.308Z,46.65
2023-04-08T11:30:13.339Z,45.67
2023-04-08T11:35:17.013Z,45.86
2023-04-08T11:40:21.997Z,45.92
2023-04-08T11:45:26.194Z,44.17
2023-04-08T11:50:30.081Z,42.80
2023-04-08T11:55:34.048Z,41.97
2023-04-08T12:00:37.444Z,41.36
2023-04-08T12:05:40.739Z,40.76
2023-04-08T12:10:43.445Z,40.28
2023-04-08T12:15:46.139Z,40.51
2023-04-08T12:20:48.798Z,39.19
2023-04-08T12:25:51.940Z,38.64
2023-04-08T12:30:54.602Z,37.93
2023-04-08T12:36:00.847Z,36.77
2023-04-08T12:41:03.654Z,35.48
2023-04-08T12:46:06.452Z,35.89
2023-04-08T12:51:10.428Z,36.20
2023-04-08T12:56:13.359Z,36.68
2023-04-08T13:01:16.187Z,33.90
2023-04-08T13:06:18.854Z,34.07
2023-04-08T13:11:21.516Z,33.62
2023-04-08T13:16:24.250Z,33.83
2023-04-08T13:21:27.414Z,33.95
2023-04-08T13:26:30.086Z,33.11
2023-04-08T13:31:32.908Z,32.81
2023-04-08T13:36:35.930Z,32.30
2023-04-08T13:41:38.712Z,30.38
2023-04-08T13:46:42.347Z,29.04
2023-04-08T13:51:45.039Z,29.20
2023-04-08T13:56:47.731Z,29.03
2023-04-08T14:01:54.181Z,28.58
2023-04-08T14:06:58.161Z,28.51
2023-04-08T14:12:00.911Z,29.20
2023-04-08T14:17:04.301Z,28.87
2023-04-08T14:22:07.245Z,28.04
2023-04-08T14:27:10.017Z,27.24
2023-04-08T14:32:13.258Z,26.72
2023-04-08T14:37:17.840Z,25.76
2023-04-08T14:42:21.013Z,25.87
2023-04-08T14:47:24.038Z,25.17
2023-04-08T14:52:26.734Z,24.30
2023-04-08T14:57:29.367Z,23.26
2023-04-08T15:02:32.162Z,21.67
2023-04-08T15:07:35.047Z,21.15
2023-04-08T15:12:37.915Z,21.14
2023-04-08T15:17:40.740Z,21.04
2023-04-08T15:22:43.383Z,20.08
2023-04-08T15:27:46.659Z,19.73
2023-04-08T15:32:49.367Z,21.21
2023-04-08T15:37:52.056Z,22.12
2023-04-08T15:42:54.899Z,22.90
2023-04-08T15:47:57.702Z,21.93
2023-04-08T15:53:00.429Z,21.71
2023-04-08T15:58:03.098Z,21.18
2023-04-08T16:03:08.437Z,21.30
2023-04-08T16:08:11.669Z,21.20
2023-04-08T16:13:14.362Z,20.99
2023-04-08T16:18:17.241Z,21.27
2023-04-08T16:23:20.258Z,21.72
2023-04-08T16:28:22.929Z,23.11
2023-04-08T16:33:29.915Z,25.03
2023-04-08T16:38:33.104Z,27.13
2023-04-08T16:43:37.156Z,28.54
2023-04-08T16:48:41.170Z,29.54
2023-04-08T16:53:43.801Z,30.68
2023-04-08T16:58:46.453Z,31.76
2023-04-08T17:03:50.220Z,32.84
2023-04-08T17:08:53.276Z,33.78
2023-04-08T17:13:56.144Z,34.50
2023-04-08T17:18:58.808Z,35.20
2023-04-08T17:24:01.644Z,35.90
2023-04-08T17:29:04.334Z,36.57
2023-04-08T17:34:07.864Z,37.27
2023-04-08T17:39:10.985Z,37.78
2023-04-08T17:44:13.638Z,38.47
2023-04-08T17:49:16.715Z,39.00
2023-04-08T17:54:19.393Z,39.79
2023-04-08T17:59:22.044Z,40.38
2023-04-08T18:04:24.743Z,41.03
2023-04-08T18:09:27.454Z,41.76
2023-04-08T18:14:30.189Z,42.35
2023-04-08T18:19:32.945Z,43.25
2023-04-08T18:24:35.771Z,44.20
2023-04-08T18:29:38.714Z,44.77
2023-04-08T18:34:41.690Z,45.95
2023-04-08T18:39:44.370Z,47.31
2023-04-08T18:44:47.112Z,48.57
2023-04-08T18:49:49.765Z,49.83
2023-04-08T18:54:52.679Z,50.88
2023-04-08T18:59:55.397Z,51.81
2023-04-08T19:04:58.449Z,52.75
2023-04-08T19:10:01.224Z,53.68
2023-04-08T19:15:04.665Z,54.20
2023-04-08T19:20:08.497Z,54.88
2023-04-08T19:25:11.261Z,55.49
2023-04-08T19:30:13.980Z,55.78
2023-04-08T19:35:16.698Z,55.97
2023-04-08T19:40:19.832Z,56.55
2023-04-08T19:45:22.539Z,56.93
2023-04-08T19:50:25.531Z,57.44
2023-04-08T19:55:28.283Z,58.01
2023-04-08T20:00:31.281Z,58.01
2023-04-08T20:05:34.044Z,58.49
2023-04-08T20:10:36.827Z,58.54
2023-04-08T20:15:39.581Z,58.88
2023-04-08T20:20:42.983Z,59.19
2023-04-08T20:25:45.732Z,59.36
2023-04-08T20:30:48.387Z,59.68
2023-04-08T20:35:53.347Z,60.08
2023-04-08T20:40:56.160Z,60.23
2023-04-08T20:45:58.926Z,60.62
2023-04-08T20:51:01.632Z,60.58
2023-04-08T20:56:04.735Z,60.69
2023-04-08T21:01:07.853Z,60.96
2023-04-08T21:06:20.870Z,61.02
2023-04-08T21:11:23.654Z,61.08
2023-04-08T21:16:26.413Z,61.13
2023-04-08T21:21:29.687Z,61.63
2023-04-08T21:26:32.464Z,61.92
2023-04-08T21:31:35.445Z,61.90
2023-04-08T21:36:38.148Z,61.95
2023-04-08T21:41:40.839Z,62.35
2023-04-08T21:46:43.542Z,62.50
2023-04-08T21:51:46.359Z,62.80
2023-04-08T21:56:49.053Z,63.40
2023-04-08T22:01:51.942Z,63.91
2023-04-08T22:06:55.113Z,64.29
2023-04-08T22:11:57.910Z,64.40
2023-04-08T22:17:00.649Z,64.37
2023-04-08T22:22:03.426Z,64.53
2023-04-08T22:27:06.978Z,65.16
2023-04-08T22:32:09.650Z,65.77
2023-04-08T22:37:12.372Z,65.87
2023-04-08T22:42:15.050Z,65.81
2023-04-08T22:47:18.262Z,65.71
2023-04-08T22:52:21.143Z,66.01
2023-04-08T22:57:23.817Z,66.30
2023-04-08T23:02:26.524Z,66.35
2023-04-08T23:07:29.305Z,66.65
2023-04-08T23:12:32.028Z,66.70
2023-04-08T23:17:34.768Z,66.96
2023-04-08T23:22:37.479Z,67.56
2023-04-08T23:27:40.304Z,67.80
2023-04-08T23:32:43.021Z,67.99
2023-04-08T23:37:46.353Z,68.01
2023-04-08T23:42:49.014Z,68.35
2023-04-08T23:47:51.815Z,68.49
2023-04-08T23:52:54.467Z,68.46
2023-04-08T23:57:57.134Z,68.93
